createdAt,value
2019-05-22T00:00:49.357Z,14.50
2019-05-22T00:03:21.335Z,14.60
2019-05-22T00:05:51.380Z,14.60
2019-05-22T00:08:20.351Z,14.60
2019-05-22T00:10:49.487Z,14.70
2019-05-22T00:13:23.052Z,14.70
2019-05-22T00:15:53.944Z,14.70
2019-05-22T00:18:23.349Z,14.70
2019-05-22T00:20:53.880Z,14.70
2019-05-22T00:23:23.308Z,14.70
2019-05-22T00:25:54.442Z,14.70
2019-05-22T00:28:25.468Z,14.60
2019-05-22T00:30:55.412Z,14.70
2019-05-22T00:33:25.061Z,14.70
2019-05-22T00:35:56.032Z,14.70
2019-05-22T00:38:25.335Z,14.60
2019-05-22T00:41:03.320Z,14.60
2019-05-22T00:43:37.636Z,14.50
2019-05-22T00:46:09.788Z,14.50
2019-05-22T00:48:41.563Z,14.50
2019-05-22T00:51:30.018Z,14.40
2019-05-22T00:54:08.143Z,14.40
2019-05-22T00:56:43.243Z,14.30
2019-05-22T00:59:18.978Z,14.30
2019-05-22T01:01:53.030Z,14.30
2019-05-22T01:04:27.207Z,14.30
2019-05-22T01:06:57.967Z,14.30
2019-05-22T01:09:32.696Z,14.30
2019-05-22T01:12:03.287Z,14.30
2019-05-22T01:14:42.647Z,14.30
2019-05-22T01:17:04.622Z,14.30
2019-05-22T01:19:34.404Z,14.40
2019-05-22T01:22:05.487Z,14.50
2019-05-22T01:24:35.782Z,14.50
2019-05-22T01:27:05.366Z,14.40
2019-05-22T01:29:36.592Z,14.40
2019-05-22T01:32:17.201Z,14.30
2019-05-22T01:34:47.170Z,14.30
2019-05-22T01:37:18.206Z,14.40
2019-05-22T01:40:04.545Z,14.40
2019-05-22T01:42:41.331Z,14.50
2019-05-22T01:45:18.521Z,14.50
2019-05-22T01:47:55.145Z,14.60
2019-05-22T01:50:55.448Z,14.60
2019-05-22T01:53:32.805Z,14.60
2019-05-22T01:56:06.710Z,14.60
2019-05-22T01:58:39.144Z,14.60
2019-05-22T02:01:13.945Z,14.40
2019-05-22T02:03:44.742Z,14.20
2019-05-22T02:06:14.576Z,14.20
2019-05-22T02:08:51.867Z,14.10
2019-05-22T02:11:24.572Z,14.00
2019-05-22T02:13:58.266Z,14.00
2019-05-22T02:16:31.442Z,14.00
2019-05-22T02:19:03.176Z,14.00
2019-05-22T02:21:33.687Z,14.10
2019-05-22T02:24:05.039Z,14.00
2019-05-22T02:26:34.795Z,14.00
2019-05-22T02:29:05.289Z,13.80
2019-05-22T02:31:36.180Z,13.80
2019-05-22T02:34:07.245Z,13.70
2019-05-22T02:36:38.735Z,13.70
2019-05-22T02:39:13.605Z,13.60
2019-05-22T02:41:48.266Z,13.60
2019-05-22T02:44:17.673Z,13.60
2019-05-22T02:46:47.002Z,13.60
2019-05-22T02:49:17.353Z,13.60
2019-05-22T02:51:48.519Z,13.60
2019-05-22T02:54:18.310Z,13.70
2019-05-22T02:56:47.294Z,13.70
2019-05-22T02:59:18.027Z,13.70
2019-05-22T03:01:47.575Z,13.80
2019-05-22T03:04:20.402Z,13.80
2019-05-22T03:06:51.036Z,13.80
2019-05-22T03:09:39.032Z,13.80
2019-05-22T03:12:11.127Z,13.80
2019-05-22T03:14:43.851Z,13.80
2019-05-22T03:17:30.253Z,13.70
2019-05-22T03:20:01.974Z,13.70
2019-05-22T03:22:39.948Z,13.70
2019-05-22T03:25:15.432Z,13.60
2019-05-22T03:27:50.198Z,13.60
2019-05-22T03:30:24.182Z,13.50
2019-05-22T03:32:55.484Z,13.50
2019-05-22T03:35:26.267Z,13.50
2019-05-22T03:37:59.091Z,13.30
2019-05-22T03:40:29.853Z,13.20
2019-05-22T03:43:04.496Z,13.30
2019-05-22T03:45:35.316Z,13.30
2019-05-22T03:48:06.414Z,13.50
2019-05-22T03:50:35.933Z,13.50
2019-05-22T03:53:15.743Z,13.50
2019-05-22T03:55:46.278Z,13.50
2019-05-22T03:58:16.694Z,13.50
2019-05-22T04:00:46.320Z,13.40
2019-05-22T04:03:17.668Z,13.40
2019-05-22T04:05:48.657Z,13.30
2019-05-22T04:08:19.700Z,13.30
2019-05-22T04:10:55.810Z,13.20
2019-05-22T04:13:25.833Z,13.20
2019-05-22T04:15:54.931Z,13.10
2019-05-22T04:18:26.053Z,13.10
2019-05-22T04:20:57.512Z,13.00
2019-05-22T04:23:27.296Z,13.10
2019-05-22T04:25:57.691Z,13.10
2019-05-22T04:28:29.193Z,13.20
2019-05-22T04:31:00.016Z,13.30
2019-05-22T04:33:30.680Z,13.40
2019-05-22T04:36:00.574Z,13.40
2019-05-22T04:38:29.723Z,13.40
2019-05-22T04:41:02.143Z,13.50
2019-05-22T04:43:33.857Z,13.50
2019-05-22T04:46:05.328Z,13.50
2019-05-22T04:48:36.294Z,13.60
2019-05-22T04:51:25.228Z,13.60
2019-05-22T04:53:54.730Z,13.60
2019-05-22T04:56:24.275Z,13.60
2019-05-22T04:58:54.884Z,13.50
2019-05-22T05:01:24.570Z,13.40
2019-05-22T05:03:54.059Z,13.40
2019-05-22T05:06:26.161Z,13.50
2019-05-22T05:08:56.402Z,13.50
2019-05-22T05:11:29.332Z,13.60
2019-05-22T05:13:58.353Z,13.60
2019-05-22T05:16:27.336Z,13.60
2019-05-22T05:18:57.043Z,13.60
2019-05-22T05:21:26.090Z,13.60
2019-05-22T05:23:56.567Z,13.50
2019-05-22T05:26:26.734Z,13.60
2019-05-22T05:28:56.357Z,13.70
2019-05-22T05:31:25.906Z,13.70
2019-05-22T05:34:07.994Z,13.80
2019-05-22T05:36:37.613Z,13.90
2019-05-22T05:39:12.202Z,13.80
2019-05-22T05:41:41.896Z,13.80
2019-05-22T05:44:10.809Z,13.90
2019-05-22T05:46:39.711Z,14.00
2019-05-22T05:49:08.855Z,14.00
2019-05-22T05:51:45.180Z,13.90
2019-05-22T05:54:15.413Z,13.90
2019-05-22T05:56:48.543Z,13.90
2019-05-22T05:59:20.036Z,13.90
2019-05-22T06:01:54.055Z,14.00
2019-05-22T06:04:35.309Z,14.10
2019-05-22T06:07:19.744Z,14.20
2019-05-22T06:09:57.678Z,14.30
2019-05-22T06:12:27.295Z,14.40
2019-05-22T06:14:56.831Z,14.40
2019-05-22T06:18:14.961Z,14.40
2019-05-22T06:20:44.416Z,14.40
2019-05-22T06:23:55.356Z,14.40
2019-05-22T06:26:39.059Z,14.30
2019-05-22T06:29:10.717Z,14.40
2019-05-22T06:32:12.673Z,14.40
2019-05-22T06:34:41.996Z,14.60
2019-05-22T06:37:20.096Z,14.70
2019-05-22T06:39:49.285Z,14.70
2019-05-22T06:42:18.565Z,14.80
2019-05-22T06:44:47.623Z,14.80
2019-05-22T06:47:23.255Z,14.80
2019-05-22T06:49:54.322Z,14.80
2019-05-22T06:52:23.636Z,14.90
2019-05-22T06:54:53.920Z,14.90
2019-05-22T06:57:36.126Z,14.70
2019-05-22T07:00:15.530Z,14.60
2019-05-22T07:02:45.059Z,14.40
2019-05-22T07:05:14.529Z,14.40
2019-05-22T07:07:43.958Z,14.50
2019-05-22T07:10:14.541Z,14.50
2019-05-22T07:12:44.467Z,14.50
2019-05-22T07:15:36.535Z,14.70
2019-05-22T07:18:07.225Z,14.80
2019-05-22T07:20:38.447Z,14.80
2019-05-22T07:23:09.423Z,15.10
2019-05-22T07:25:40.397Z,15.00
2019-05-22T07:28:09.718Z,15.10
2019-05-22T07:30:39.452Z,15.20
2019-05-22T07:33:09.835Z,15.40
2019-05-22T07:36:07.790Z,15.40
2019-05-22T07:38:10.062Z,15.50
2019-05-22T07:40:39.550Z,15.70
2019-05-22T07:43:08.586Z,15.80
2019-05-22T07:45:37.755Z,16.00
2019-05-22T07:48:08.006Z,16.00
2019-05-22T07:50:42.127Z,15.80
2019-05-22T07:53:11.402Z,15.70
2019-05-22T07:55:41.350Z,15.60
2019-05-22T07:58:16.327Z,15.60
2019-05-22T08:01:00.014Z,15.70
2019-05-22T08:03:31.658Z,15.70
2019-05-22T08:06:02.766Z,15.70
2019-05-22T08:08:35.378Z,15.80
2019-05-22T08:11:05.410Z,15.80
2019-05-22T08:13:35.298Z,16.10
2019-05-22T08:16:04.782Z,16.20
2019-05-22T08:18:39.768Z,16.00
2019-05-22T08:21:10.529Z,16.10
2019-05-22T08:23:39.568Z,16.40
2019-05-22T08:26:10.508Z,16.80
2019-05-22T08:28:40.927Z,17.30
2019-05-22T08:31:10.997Z,17.30
2019-05-22T08:33:39.927Z,17.80
2019-05-22T08:36:09.637Z,18.10
2019-05-22T08:38:39.366Z,17.90
2019-05-22T08:41:09.755Z,17.90
2019-05-22T08:44:03.175Z,17.50
2019-05-22T08:46:11.992Z,17.30
2019-05-22T08:48:47.759Z,17.30
2019-05-22T08:51:15.087Z,17.50
2019-05-22T08:53:48.113Z,17.80
2019-05-22T08:56:15.213Z,18.20
2019-05-22T08:58:46.190Z,18.20
2019-05-22T09:01:15.650Z,18.10
2019-05-22T09:03:45.547Z,18.20
2019-05-22T09:06:14.514Z,18.10
2019-05-22T09:08:43.408Z,18.10
2019-05-22T09:11:12.727Z,18.40
2019-05-22T09:13:42.182Z,18.90
2019-05-22T09:16:12.272Z,18.90
2019-05-22T09:18:41.913Z,18.80
2019-05-22T09:21:11.902Z,18.70
2019-05-22T09:23:41.999Z,18.50
2019-05-22T09:26:30.434Z,18.70
2019-05-22T09:28:59.444Z,19.20
2019-05-22T09:31:28.915Z,19.40
2019-05-22T09:33:58.997Z,19.50
2019-05-22T09:36:28.420Z,19.60
2019-05-22T09:38:57.782Z,19.60
2019-05-22T09:41:27.120Z,19.50
2019-05-22T09:43:56.799Z,19.20
2019-05-22T09:46:26.384Z,18.90
2019-05-22T09:48:56.825Z,18.80
2019-05-22T09:51:26.175Z,18.60
2019-05-22T09:53:55.679Z,18.30
2019-05-22T09:56:27.037Z,18.60
2019-05-22T09:58:56.788Z,19.00
2019-05-22T10:01:25.870Z,18.90
2019-05-22T10:03:54.892Z,18.60
2019-05-22T10:06:23.884Z,18.70
2019-05-22T10:08:53.132Z,18.50
2019-05-22T10:11:22.627Z,18.40
2019-05-22T10:13:52.358Z,18.50
2019-05-22T10:16:22.286Z,18.80
2019-05-22T10:18:53.309Z,18.80
2019-05-22T10:21:23.251Z,18.50
2019-05-22T10:23:52.477Z,18.50
2019-05-22T10:26:22.445Z,18.60
2019-05-22T10:28:52.168Z,18.80
2019-05-22T10:31:23.064Z,18.70
2019-05-22T10:33:52.380Z,19.00
2019-05-22T10:36:23.774Z,18.80
2019-05-22T10:38:53.048Z,18.90
2019-05-22T10:41:22.571Z,19.40
2019-05-22T10:43:52.024Z,19.80
2019-05-22T10:46:21.004Z,19.90
2019-05-22T10:48:50.622Z,20.50
2019-05-22T10:51:19.710Z,19.80
2019-05-22T10:53:49.230Z,19.60
2019-05-22T10:56:18.931Z,19.70
2019-05-22T10:58:48.189Z,20.00
2019-05-22T11:01:23.176Z,19.90
2019-05-22T11:03:53.480Z,20.00
2019-05-22T11:06:23.908Z,20.10
2019-05-22T11:08:53.858Z,19.90
2019-05-22T11:11:23.380Z,19.60
2019-05-22T11:14:01.795Z,19.50
2019-05-22T11:16:33.680Z,19.40
2019-05-22T11:19:04.978Z,19.30
2019-05-22T11:21:36.193Z,19.20
2019-05-22T11:24:08.389Z,19.40
2019-05-22T11:26:37.937Z,19.40
2019-05-22T11:29:09.210Z,19.50
2019-05-22T11:31:39.841Z,19.40
2019-05-22T11:34:09.991Z,19.60
2019-05-22T11:36:40.151Z,19.90
2019-05-22T11:39:13.961Z,20.20
2019-05-22T11:41:43.067Z,20.40
2019-05-22T11:44:13.261Z,20.30
2019-05-22T11:46:43.305Z,20.40
2019-05-22T11:49:12.329Z,20.40
2019-05-22T11:51:41.904Z,20.40
2019-05-22T11:54:11.388Z,20.50
2019-05-22T11:56:41.082Z,20.20
2019-05-22T11:59:11.267Z,20.40
2019-05-22T12:01:40.587Z,20.40
2019-05-22T12:04:14.191Z,20.20
2019-05-22T12:06:45.156Z,20.10
2019-05-22T12:09:14.823Z,20.10
2019-05-22T12:11:45.181Z,20.40
2019-05-22T12:14:15.876Z,20.50
2019-05-22T12:16:45.063Z,20.60
2019-05-22T12:19:14.400Z,20.50
2019-05-22T12:21:44.151Z,20.60
2019-05-22T12:24:26.062Z,20.70
2019-05-22T12:26:44.185Z,21.10
2019-05-22T12:29:17.175Z,21.30
2019-05-22T12:31:45.378Z,21.40
2019-05-22T12:34:15.149Z,21.30
2019-05-22T12:36:44.860Z,21.00
2019-05-22T12:39:15.678Z,20.90
2019-05-22T12:42:07.968Z,20.80
2019-05-22T12:44:37.707Z,21.00
2019-05-22T12:47:10.742Z,20.90
2019-05-22T12:49:40.946Z,21.00
2019-05-22T12:52:11.317Z,21.00
2019-05-22T12:54:47.015Z,20.90
2019-05-22T12:57:11.766Z,20.80
2019-05-22T12:59:41.977Z,21.10
2019-05-22T13:02:14.616Z,21.70
2019-05-22T13:04:44.233Z,22.00
2019-05-22T13:07:13.821Z,22.10
2019-05-22T13:09:43.136Z,21.90
2019-05-22T13:12:14.634Z,21.80
2019-05-22T13:14:43.800Z,22.20
2019-05-22T13:17:15.153Z,22.50
2019-05-22T13:19:46.605Z,22.30
2019-05-22T13:22:16.982Z,22.60
2019-05-22T13:24:47.130Z,22.50
2019-05-22T13:27:17.652Z,22.40
2019-05-22T13:29:48.247Z,22.20
2019-05-22T13:32:19.965Z,22.30
2019-05-22T13:34:50.450Z,22.60
2019-05-22T13:37:20.385Z,22.40
2019-05-22T13:39:49.912Z,22.30
2019-05-22T13:42:19.907Z,22.60
2019-05-22T13:44:49.532Z,22.80
2019-05-22T13:47:19.236Z,22.70
2019-05-22T13:49:48.841Z,22.60
2019-05-22T13:52:17.906Z,22.60
2019-05-22T13:54:47.702Z,22.50
2019-05-22T13:57:17.514Z,22.50
2019-05-22T13:59:52.443Z,22.30
2019-05-22T14:02:26.970Z,22.30
2019-05-22T14:04:53.739Z,22.30
2019-05-22T14:07:22.847Z,22.60
2019-05-22T14:09:54.036Z,22.20
2019-05-22T14:12:23.470Z,22.10
2019-05-22T14:14:52.847Z,22.20
2019-05-22T14:17:22.422Z,22.30
2019-05-22T14:19:51.844Z,22.40
2019-05-22T14:22:21.032Z,22.30
2019-05-22T14:24:50.376Z,22.20
2019-05-22T14:27:19.814Z,22.00
2019-05-22T14:29:49.209Z,22.00
2019-05-22T14:32:19.045Z,22.00
2019-05-22T14:34:48.481Z,22.10
2019-05-22T14:37:17.840Z,22.40
2019-05-22T14:39:47.406Z,22.30
2019-05-22T14:42:18.912Z,22.30
2019-05-22T14:44:48.930Z,22.50
2019-05-22T14:47:19.458Z,22.60
2019-05-22T14:49:48.709Z,22.80
2019-05-22T14:52:18.115Z,22.80
2019-05-22T14:54:48.497Z,22.60
2019-05-22T14:57:19.225Z,22.50
2019-05-22T14:59:48.333Z,22.60
2019-05-22T15:02:18.436Z,22.60
2019-05-22T15:04:48.578Z,22.10
2019-05-22T15:07:17.749Z,21.90
2019-05-22T15:09:47.675Z,21.70
2019-05-22T15:12:41.916Z,21.60
2019-05-22T15:15:28.586Z,21.60
2019-05-22T15:17:58.716Z,21.70
2019-05-22T15:20:47.541Z,21.80
2019-05-22T15:23:16.948Z,21.90
2019-05-22T15:25:48.861Z,22.00
2019-05-22T15:28:26.710Z,22.10
2019-05-22T15:30:55.061Z,22.20
2019-05-22T15:33:25.849Z,22.20
2019-05-22T15:35:55.871Z,22.30
2019-05-22T15:38:26.110Z,22.30
2019-05-22T15:40:55.707Z,22.00
2019-05-22T15:43:26.941Z,21.70
2019-05-22T15:45:57.427Z,21.50
2019-05-22T15:48:30.379Z,21.30
2019-05-22T15:51:06.847Z,21.30
2019-05-22T15:53:38.177Z,21.30
2019-05-22T15:56:12.132Z,21.30
2019-05-22T15:58:49.689Z,21.40
2019-05-22T16:01:25.290Z,21.50
2019-05-22T16:03:56.082Z,21.60
2019-05-22T16:06:25.848Z,21.60
2019-05-22T16:08:55.671Z,21.50
2019-05-22T16:11:27.691Z,21.30
2019-05-22T16:14:00.932Z,21.20
2019-05-22T16:16:30.226Z,21.00
2019-05-22T16:19:05.143Z,21.00
2019-05-22T16:21:35.182Z,20.90
2019-05-22T16:24:07.329Z,20.90
2019-05-22T16:26:36.627Z,21.00
2019-05-22T16:29:07.380Z,21.10
2019-05-22T16:31:39.672Z,21.20
2019-05-22T16:34:09.127Z,21.30
2019-05-22T16:36:38.842Z,21.50
2019-05-22T16:39:10.965Z,21.70
2019-05-22T16:41:41.978Z,21.80
2019-05-22T16:44:12.252Z,21.80
2019-05-22T16:46:42.737Z,21.60
2019-05-22T16:49:13.690Z,21.40
2019-05-22T16:52:02.229Z,21.30
2019-05-22T16:54:33.297Z,21.20
2019-05-22T16:57:02.784Z,21.00
2019-05-22T16:59:37.090Z,20.90
2019-05-22T17:02:06.907Z,20.90
2019-05-22T17:04:36.636Z,21.00
2019-05-22T17:07:07.063Z,21.10
2019-05-22T17:09:37.779Z,21.10
2019-05-22T17:12:09.669Z,21.10
2019-05-22T17:14:39.108Z,21.00
2019-05-22T17:17:10.194Z,21.10
2019-05-22T17:19:39.305Z,21.10
2019-05-22T17:22:09.502Z,21.10
2019-05-22T17:24:39.505Z,21.00
2019-05-22T17:27:10.219Z,21.00
2019-05-22T17:29:39.515Z,21.00
2019-05-22T17:32:10.438Z,21.00
2019-05-22T17:34:39.840Z,21.00
2019-05-22T17:37:13.809Z,20.90
2019-05-22T17:39:46.949Z,21.00
2019-05-22T17:42:18.169Z,21.10
2019-05-22T17:44:49.507Z,21.30
2019-05-22T17:47:20.765Z,21.20
2019-05-22T17:49:50.926Z,21.20
2019-05-22T17:52:20.884Z,21.10
2019-05-22T17:54:51.876Z,21.00
2019-05-22T17:57:23.088Z,20.90
2019-05-22T17:59:53.716Z,20.70
2019-05-22T18:02:26.418Z,20.60
2019-05-22T18:04:55.405Z,20.50
2019-05-22T18:07:25.757Z,20.40
2019-05-22T18:09:55.341Z,20.40
2019-05-22T18:12:24.512Z,20.40
2019-05-22T18:14:54.008Z,20.30
2019-05-22T18:17:26.375Z,20.20
2019-05-22T18:19:55.837Z,20.20
2019-05-22T18:22:25.148Z,20.20
2019-05-22T18:24:54.206Z,20.20
2019-05-22T18:27:25.422Z,20.20
2019-05-22T18:29:54.500Z,20.20
2019-05-22T18:32:23.620Z,20.10
2019-05-22T18:34:53.489Z,20.10
2019-05-22T18:37:22.644Z,20.10
2019-05-22T18:39:51.695Z,20.10
2019-05-22T18:42:22.278Z,20.00
2019-05-22T18:44:51.550Z,19.90
2019-05-22T18:47:21.255Z,19.90
2019-05-22T18:49:50.482Z,19.90
2019-05-22T18:52:19.980Z,19.80
2019-05-22T18:54:49.285Z,19.80
2019-05-22T18:57:18.590Z,19.70
2019-05-22T18:59:47.796Z,19.60
2019-05-22T19:02:16.965Z,19.60
2019-05-22T19:04:46.068Z,19.60
2019-05-22T19:07:15.393Z,19.50
2019-05-22T19:09:44.491Z,19.50
2019-05-22T19:12:13.699Z,19.40
2019-05-22T19:14:42.887Z,19.40
2019-05-22T19:51:25.700Z,18.80
2019-05-22T19:54:12.691Z,18.70
2019-05-22T19:56:45.216Z,18.80
2019-05-22T19:59:15.841Z,18.70
2019-05-22T20:01:46.734Z,18.70
2019-05-22T20:04:17.333Z,18.70
2019-05-22T20:06:49.792Z,18.80
2019-05-22T20:09:20.502Z,18.80
2019-05-22T20:11:50.148Z,18.80
2019-05-22T20:14:19.552Z,18.90
2019-05-22T20:16:49.202Z,18.90
2019-05-22T20:19:22.674Z,19.00
2019-05-22T20:21:51.828Z,19.00
2019-05-22T20:24:21.066Z,19.10
2019-05-22T20:26:50.874Z,19.10
2019-05-22T20:29:20.372Z,19.10
2019-05-22T20:31:50.134Z,19.10
2019-05-22T20:34:22.659Z,19.20
2019-05-22T20:36:51.769Z,19.10
2019-05-22T20:39:21.448Z,19.10
2019-05-22T20:41:51.688Z,19.10
2019-05-22T20:44:24.263Z,19.10
2019-05-22T20:46:53.192Z,19.10
2019-05-22T20:49:22.643Z,19.10
2019-05-22T20:51:52.454Z,19.10
2019-05-22T20:54:21.873Z,19.10
2019-05-22T20:56:54.390Z,19.10
2019-05-22T20:59:24.454Z,19.10
2019-05-22T21:01:54.096Z,19.20
2019-05-22T21:04:25.204Z,19.10
2019-05-22T21:07:00.033Z,19.20
2019-05-22T21:09:29.701Z,19.20
2019-05-22T21:12:01.265Z,19.20
2019-05-22T21:14:30.767Z,19.20
2019-05-22T21:17:00.936Z,19.20
2019-05-22T21:19:31.432Z,19.20
2019-05-22T21:22:00.953Z,19.20
2019-05-22T21:24:32.120Z,19.10
2019-05-22T21:27:01.840Z,19.20
2019-05-22T21:29:31.818Z,19.20
2019-05-22T21:32:00.692Z,19.10
2019-05-22T21:34:31.265Z,19.10
2019-05-22T21:37:00.851Z,19.10
2019-05-22T21:39:30.155Z,19.00
2019-05-22T21:42:00.341Z,18.80
2019-05-22T21:44:31.186Z,18.70
2019-05-22T21:47:02.142Z,18.70
2019-05-22T21:49:32.024Z,18.60
2019-05-22T21:52:01.592Z,18.50
2019-05-22T21:54:32.349Z,18.50
2019-05-22T21:57:01.501Z,18.50
2019-05-22T21:59:30.630Z,18.40
2019-05-22T22:02:09.331Z,18.30
2019-05-22T22:04:38.705Z,18.30
2019-05-22T22:07:09.375Z,18.20
2019-05-22T22:09:39.363Z,18.20
2019-05-22T22:12:17.296Z,18.20
2019-05-22T22:14:48.266Z,18.10
2019-05-22T22:17:18.944Z,18.10
2019-05-22T22:19:49.287Z,18.00
2019-05-22T22:22:30.728Z,17.90
2019-05-22T22:25:00.809Z,17.90
2019-05-22T22:27:31.370Z,17.80
2019-05-22T22:30:02.646Z,17.80
2019-05-22T22:32:34.182Z,17.80
2019-05-22T22:35:04.649Z,17.70
2019-05-22T22:37:33.588Z,17.70
2019-05-22T22:40:02.748Z,17.70
2019-05-22T22:42:36.952Z,17.60
2019-05-22T22:45:08.799Z,17.60
2019-05-22T22:47:40.863Z,17.60
2019-05-22T22:50:11.273Z,17.60
2019-05-22T22:52:42.025Z,17.50
2019-05-22T22:55:13.043Z,17.50
2019-05-22T22:57:42.748Z,17.40
2019-05-22T23:00:16.436Z,17.40
2019-05-22T23:02:47.984Z,17.30
2019-05-22T23:05:17.666Z,17.30
2019-05-22T23:07:48.763Z,17.20
2019-05-22T23:10:19.269Z,17.20
2019-05-22T23:12:48.641Z,17.10
2019-05-22T23:15:19.104Z,17.10
2019-05-22T23:17:48.653Z,17.10
2019-05-22T23:20:17.447Z,17.10
2019-05-22T23:22:45.610Z,17.00
2019-05-22T23:25:15.827Z,17.10
2019-05-22T23:27:45.215Z,17.00
2019-05-22T23:30:16.346Z,17.00
2019-05-22T23:32:47.013Z,16.90
2019-05-22T23:35:17.102Z,16.90
2019-05-22T23:37:46.313Z,16.90
2019-05-22T23:40:20.616Z,16.90
2019-05-22T23:42:50.300Z,16.80
2019-05-22T23:45:22.607Z,16.80
2019-05-22T23:48:03.383Z,16.80
2019-05-22T23:50:35.190Z,16.70
2019-05-22T23:53:04.924Z,16.70
2019-05-22T23:55:34.120Z,16.70
2019-05-22T23:58:03.202Z,16.50
